createdAt,value
2022-08-09T00:02:01.813Z,1.85
2022-08-09T00:05:03.437Z,1.98
2022-08-09T00:07:54.400Z,2.15
2022-08-09T00:10:42.993Z,2.10
2022-08-09T00:13:23.818Z,1.90
2022-08-09T00:16:12.912Z,1.88
2022-08-09T00:18:53.820Z,2.65
2022-08-09T00:21:55.562Z,1.83
2022-08-09T00:24:40.047Z,2.13
2022-08-09T00:27:29.123Z,1.95
2022-08-09T00:30:26.043Z,2.53
2022-08-09T00:33:13.951Z,2.08
2022-08-09T00:35:55.574Z,1.92
2022-08-09T00:38:45.759Z,1.90
2022-08-09T00:44:10.711Z,2.20
2022-08-09T00:44:46.975Z,2.00
2022-08-09T00:47:39.637Z,2.13
2022-08-09T00:50:21.576Z,2.65
2022-08-09T00:53:14.224Z,3.22
2022-08-09T00:56:05.369Z,3.38
2022-08-09T00:58:58.955Z,2.22
2022-08-09T01:01:45.321Z,2.50
2022-08-09T01:04:53.843Z,2.20
2022-08-09T01:08:11.997Z,2.20
2022-08-09T01:11:14.865Z,2.13
2022-08-09T01:14:04.167Z,2.55
2022-08-09T01:16:55.208Z,2.47
2022-08-09T01:20:01.770Z,2.40
2022-08-09T01:24:00.415Z,2.30
2022-08-09T01:26:42.787Z,2.03
2022-08-09T01:29:55.117Z,2.83
2022-08-09T01:32:50.022Z,2.63
2022-08-09T01:35:55.723Z,2.05
2022-08-09T01:38:46.865Z,2.42
2022-08-09T01:41:55.549Z,3.03
2022-08-09T01:44:56.832Z,2.63
2022-08-09T01:47:49.718Z,2.50
2022-08-09T01:50:37.064Z,2.47
2022-08-09T01:53:41.195Z,2.70
2022-08-09T01:56:23.980Z,2.78
2022-08-09T01:59:16.100Z,2.55
2022-08-09T02:02:01.481Z,2.45
2022-08-09T02:04:49.856Z,2.20
2022-08-09T02:08:35.412Z,2.55
2022-08-09T02:10:50.842Z,2.50
2022-08-09T02:13:40.543Z,2.60
2022-08-09T02:16:33.679Z,2.85
2022-08-09T02:19:16.024Z,2.83
2022-08-09T02:22:11.272Z,3.20
2022-08-09T02:24:58.236Z,2.67
2022-08-09T02:28:00.267Z,2.97
2022-08-09T02:30:52.980Z,3.10
2022-08-09T02:34:07.467Z,2.90
2022-08-09T02:36:53.579Z,2.50
2022-08-09T02:39:49.808Z,2.60
2022-08-09T02:42:43.983Z,2.60
2022-08-09T02:45:45.383Z,2.65
2022-08-09T02:51:37.139Z,2.90
2022-08-09T02:54:30.985Z,2.50
2022-08-09T02:57:23.407Z,2.40
2022-08-09T03:00:25.255Z,2.60
2022-08-09T03:03:07.982Z,2.38
2022-08-09T03:05:58.054Z,2.70
2022-08-09T03:08:39.898Z,2.70
2022-08-09T03:12:06.094Z,2.78
2022-08-09T03:14:32.963Z,3.10
2022-08-09T03:17:27.098Z,2.85
2022-08-09T03:20:11.575Z,2.42
2022-08-09T03:23:14.565Z,2.40
2022-08-09T03:26:03.279Z,2.40
2022-08-09T03:28:59.341Z,2.40
2022-08-09T03:31:42.735Z,2.75
2022-08-09T03:34:54.090Z,2.80
2022-08-09T03:37:55.774Z,2.67
2022-08-09T03:40:46.026Z,3.10
2022-08-09T03:43:32.098Z,2.60
2022-08-09T03:46:30.307Z,2.45
2022-08-09T03:49:21.343Z,2.70
2022-08-09T03:52:07.396Z,2.65
2022-08-09T03:54:56.754Z,2.60
2022-08-09T03:57:53.600Z,2.50
2022-08-09T04:00:51.237Z,3.20
2022-08-09T04:03:46.495Z,2.75
2022-08-09T04:06:48.935Z,2.75
2022-08-09T04:09:48.004Z,2.42
2022-08-09T04:12:50.033Z,2.70
2022-08-09T04:16:17.651Z,2.65
2022-08-09T04:18:39.948Z,2.50
2022-08-09T04:21:22.152Z,2.83
2022-08-09T04:24:09.329Z,2.47
2022-08-09T04:26:52.035Z,2.70
2022-08-09T04:29:49.886Z,3.00
2022-08-09T04:32:33.870Z,2.80
2022-08-09T04:35:23.962Z,3.00
2022-08-09T04:38:05.095Z,2.80
2022-08-09T04:40:57.292Z,2.85
2022-08-09T04:43:38.647Z,3.00
2022-08-09T04:46:58.137Z,2.70
2022-08-09T04:49:55.094Z,2.90
2022-08-09T04:52:46.143Z,3.05
2022-08-09T04:55:39.381Z,3.03
2022-08-09T04:58:31.920Z,2.58
2022-08-09T05:01:16.304Z,2.97
2022-08-09T05:04:08.279Z,3.20
2022-08-09T05:06:51.979Z,2.70
2022-08-09T05:09:42.110Z,2.80
2022-08-09T05:12:26.085Z,3.35
2022-08-09T05:15:24.568Z,2.90
2022-08-09T05:18:42.621Z,2.80
2022-08-09T05:21:30.403Z,2.58
2022-08-09T05:24:17.163Z,2.72
2022-08-09T05:27:04.983Z,2.60
2022-08-09T05:29:48.262Z,2.70
2022-08-09T05:32:36.969Z,2.72
2022-08-09T05:35:23.108Z,2.80
2022-08-09T05:38:22.120Z,2.60
2022-08-09T05:41:04.138Z,2.50
2022-08-09T05:43:51.731Z,2.60
2022-08-09T05:46:39.093Z,2.33
2022-08-09T05:50:32.426Z,2.10
2022-08-09T05:52:30.707Z,2.35
2022-08-09T05:55:20.472Z,2.60
2022-08-09T05:58:08.128Z,2.28
2022-08-09T06:01:01.386Z,2.40
2022-08-09T06:03:58.150Z,2.80
2022-08-09T06:06:46.777Z,2.17
2022-08-09T06:09:53.940Z,2.30
2022-08-09T06:12:40.015Z,2.40
2022-08-09T06:15:32.299Z,2.20
2022-08-09T06:18:13.014Z,2.25
2022-08-09T06:21:04.434Z,2.88
2022-08-09T06:23:57.224Z,2.30
2022-08-09T06:26:54.144Z,2.38
2022-08-09T06:29:58.503Z,2.40
2022-08-09T06:32:53.182Z,1.75
2022-08-09T06:35:57.048Z,2.25
2022-08-09T06:38:49.913Z,2.17
2022-08-09T06:42:01.241Z,2.00
2022-08-09T06:44:39.115Z,2.13
2022-08-09T06:47:39.907Z,2.25
2022-08-09T06:50:31.819Z,2.20
2022-08-09T06:53:13.045Z,2.00
2022-08-09T06:56:00.519Z,2.22
2022-08-09T07:00:52.110Z,1.88
2022-08-09T07:01:58.095Z,2.35
2022-08-09T07:04:41.864Z,2.08
2022-08-09T07:08:00.168Z,2.10
2022-08-09T07:10:33.388Z,1.73
2022-08-09T07:13:28.266Z,2.35
2022-08-09T07:19:23.496Z,1.92
2022-08-09T07:22:12.042Z,2.05
2022-08-09T07:25:09.874Z,2.15
2022-08-09T07:27:53.115Z,1.90
2022-08-09T07:30:41.165Z,1.60
2022-08-09T07:33:22.076Z,1.40
2022-08-09T07:36:14.888Z,2.13
2022-08-09T07:39:01.041Z,1.92
2022-08-09T07:41:52.306Z,2.10
2022-08-09T07:44:53.290Z,1.80
2022-08-09T07:48:00.723Z,2.22
2022-08-09T07:50:52.733Z,2.10
2022-08-09T07:54:04.741Z,1.77
2022-08-09T07:56:49.620Z,2.20
2022-08-09T07:59:51.897Z,1.70
2022-08-09T08:05:39.281Z,1.90
2022-08-09T08:09:00.056Z,2.30
2022-08-09T08:12:11.015Z,2.05
2022-08-09T08:14:45.086Z,1.70
2022-08-09T08:17:52.246Z,1.50
2022-08-09T08:20:36.103Z,2.03
2022-08-09T08:23:27.346Z,2.13
2022-08-09T08:26:11.447Z,2.05
2022-08-09T08:28:59.205Z,1.95
2022-08-09T08:32:03.903Z,1.52
2022-08-09T08:34:52.133Z,2.10
2022-08-09T08:37:41.453Z,1.52
2022-08-09T08:40:49.644Z,1.63
2022-08-09T08:43:32.351Z,1.77
2022-08-09T08:46:32.459Z,1.60
2022-08-09T08:49:24.710Z,1.75
2022-08-09T08:52:57.796Z,1.70
2022-08-09T08:55:29.921Z,1.98
2022-08-09T08:58:14.511Z,2.00
2022-08-09T09:01:09.094Z,1.90
2022-08-09T09:04:02.237Z,2.22
2022-08-09T09:06:50.859Z,2.50
2022-08-09T09:09:58.080Z,2.05
2022-08-09T09:12:43.141Z,1.83
2022-08-09T09:15:28.681Z,1.80
2022-08-09T09:18:22.579Z,1.85
2022-08-09T09:21:06.241Z,2.28
2022-08-09T09:24:04.464Z,2.20
2022-08-09T09:26:48.289Z,1.85
2022-08-09T09:30:12.316Z,2.00
2022-08-09T09:32:49.399Z,1.77
2022-08-09T09:35:37.164Z,2.00
2022-08-09T09:38:27.578Z,1.95
2022-08-09T09:41:15.130Z,1.83
2022-08-09T09:44:12.680Z,1.42
2022-08-09T09:47:24.138Z,1.95
2022-08-09T09:50:16.895Z,1.95
2022-08-09T09:53:01.382Z,1.33
2022-08-09T09:56:06.725Z,1.70
2022-08-09T09:59:01.841Z,1.63
2022-08-09T10:01:49.827Z,1.40
2022-08-09T10:04:30.564Z,1.50
2022-08-09T10:07:31.123Z,1.50
2022-08-09T10:10:14.386Z,1.45
2022-08-09T10:13:06.241Z,1.65
2022-08-09T10:16:54.610Z,1.55
2022-08-09T10:19:12.570Z,1.67
2022-08-09T10:21:57.250Z,1.38
2022-08-09T10:24:49.987Z,1.70
2022-08-09T10:27:38.591Z,2.10
2022-08-09T10:34:08.729Z,1.48
2022-08-09T10:36:46.292Z,2.13
2022-08-09T10:39:30.213Z,1.50
2022-08-09T10:42:29.739Z,1.30
2022-08-09T10:45:16.746Z,1.67
2022-08-09T10:48:39.174Z,1.52
2022-08-09T10:51:41.301Z,1.60
2022-08-09T10:54:31.237Z,1.30
2022-08-09T10:57:22.190Z,1.42
2022-08-09T11:00:05.311Z,1.60
2022-08-09T11:03:11.853Z,1.67
2022-08-09T11:06:26.121Z,1.67
2022-08-09T11:09:15.728Z,1.60
2022-08-09T11:12:05.935Z,1.35
2022-08-09T11:15:33.598Z,1.80
2022-08-09T11:18:15.883Z,1.80
2022-08-09T11:21:06.593Z,1.73
2022-08-09T11:24:07.310Z,1.73
2022-08-09T11:26:59.714Z,1.40
2022-08-09T11:30:06.254Z,1.50
2022-08-09T11:33:26.839Z,1.40
2022-08-09T11:36:08.321Z,1.67
2022-08-09T11:39:11.261Z,1.30
2022-08-09T11:41:58.522Z,1.77
2022-08-09T11:44:52.293Z,2.00
2022-08-09T11:48:02.732Z,1.83
2022-08-09T11:52:49.464Z,1.55
2022-08-09T11:54:35.026Z,1.83
2022-08-09T11:58:00.441Z,1.50
2022-08-09T12:01:08.336Z,1.40
2022-08-09T12:03:57.499Z,1.60
2022-08-09T12:06:58.361Z,1.40
2022-08-09T12:09:39.972Z,1.25
2022-08-09T12:12:53.393Z,1.88
2022-08-09T12:15:48.867Z,1.55
2022-08-09T12:18:39.376Z,1.42
2022-08-09T12:21:38.866Z,1.50
2022-08-09T12:24:30.328Z,1.40
2022-08-09T12:29:13.368Z,1.70
2022-08-09T12:30:36.927Z,1.52
2022-08-09T12:33:20.986Z,1.27
2022-08-09T12:36:27.719Z,1.75
2022-08-09T12:39:21.688Z,1.65
2022-08-09T12:42:17.144Z,1.52
2022-08-09T12:45:00.109Z,1.60
2022-08-09T12:47:50.317Z,1.45
2022-08-09T12:50:31.269Z,2.38
2022-08-09T12:53:38.810Z,1.67
2022-08-09T12:56:36.999Z,1.52
2022-08-09T12:59:57.607Z,1.33
2022-08-09T13:02:31.427Z,1.40
2022-08-09T13:05:20.403Z,1.50
2022-08-09T13:08:39.776Z,1.50
2022-08-09T13:11:39.483Z,1.67
2022-08-09T13:14:41.251Z,1.60
2022-08-09T13:18:03.319Z,1.48
2022-08-09T13:21:04.183Z,1.55
2022-08-09T13:24:07.254Z,1.60
2022-08-09T13:26:54.656Z,1.40
2022-08-09T13:30:04.323Z,1.63
2022-08-09T13:33:03.293Z,1.55
2022-08-09T13:36:39.506Z,1.52
2022-08-09T13:38:54.587Z,1.52
2022-08-09T13:41:58.091Z,1.00
2022-08-09T13:44:45.303Z,1.20
2022-08-09T13:47:49.432Z,1.45
2022-08-09T13:50:37.683Z,2.00
2022-08-09T13:53:18.983Z,1.23
2022-08-09T13:56:07.663Z,1.60
2022-08-09T13:58:54.428Z,1.52
2022-08-09T14:02:00.816Z,1.70
2022-08-09T14:04:59.688Z,1.40
2022-08-09T14:07:48.680Z,1.70
2022-08-09T14:10:46.067Z,1.38
2022-08-09T14:14:22.794Z,1.95
2022-08-09T14:16:40.266Z,1.40
2022-08-09T14:19:33.247Z,1.60
2022-08-09T14:22:16.457Z,1.30
2022-08-09T14:25:05.693Z,1.20
2022-08-09T14:27:58.299Z,1.45
2022-08-09T14:30:49.319Z,1.70
2022-08-09T14:33:30.423Z,1.40
2022-08-09T14:36:26.322Z,1.52
2022-08-09T14:39:17.963Z,1.60
2022-08-09T14:42:07.341Z,1.30
2022-08-09T14:44:59.505Z,1.42
2022-08-09T14:47:57.391Z,1.35
2022-08-09T14:50:51.960Z,1.60
2022-08-09T14:53:38.922Z,2.05
2022-08-09T14:56:26.665Z,1.50
2022-08-09T14:59:08.558Z,1.50
2022-08-09T15:02:01.461Z,1.10
2022-08-09T15:04:44.843Z,1.48
2022-08-09T15:07:35.461Z,1.60
2022-08-09T15:10:17.189Z,1.55
2022-08-09T15:13:08.904Z,1.58
2022-08-09T15:15:51.978Z,1.65
2022-08-09T15:18:41.446Z,1.35
2022-08-09T15:21:55.135Z,1.38
2022-08-09T15:24:34.212Z,1.33
2022-08-09T15:27:16.212Z,1.55
2022-08-09T15:30:59.254Z,1.40
2022-08-09T15:33:07.256Z,1.35
2022-08-09T15:36:02.168Z,1.50
2022-08-09T15:38:47.369Z,1.42
2022-08-09T15:41:35.504Z,1.35
2022-08-09T15:44:19.845Z,1.45
2022-08-09T15:47:22.691Z,1.58
2022-08-09T15:50:22.730Z,1.95
2022-08-09T15:53:18.877Z,1.50
2022-08-09T15:56:23.338Z,1.33
2022-08-09T15:59:11.466Z,1.50
2022-08-09T16:01:59.131Z,1.75
2022-08-09T16:04:42.673Z,1.60
2022-08-09T16:07:29.378Z,1.27
2022-08-09T16:10:54.966Z,1.30
2022-08-09T16:14:04.688Z,1.55
2022-08-09T16:16:31.752Z,1.88
2022-08-09T16:19:21.393Z,1.55
2022-08-09T16:22:03.552Z,1.50
2022-08-09T16:24:56.750Z,1.50
2022-08-09T16:27:41.525Z,2.35
2022-08-09T16:30:29.523Z,1.33
2022-08-09T16:33:12.422Z,1.50
2022-08-09T16:36:09.087Z,1.50
2022-08-09T16:38:55.527Z,1.83
2022-08-09T16:42:02.621Z,1.40
2022-08-09T16:44:45.649Z,1.50
2022-08-09T16:50:58.726Z,1.60
2022-08-09T16:54:02.456Z,1.60
2022-08-09T16:56:50.854Z,1.65
2022-08-09T16:59:34.895Z,1.70
2022-08-09T17:02:23.575Z,1.80
2022-08-09T17:05:07.180Z,1.40
2022-08-09T17:08:47.087Z,1.48
2022-08-09T17:11:00.429Z,1.45
2022-08-09T17:13:48.548Z,1.63
2022-08-09T17:16:42.433Z,1.40
2022-08-09T17:20:05.147Z,1.67
2022-08-09T17:22:33.666Z,1.55
2022-08-09T17:25:23.884Z,1.52
2022-08-09T17:28:10.418Z,1.30
2022-08-09T17:31:02.324Z,1.65
2022-08-09T17:33:44.542Z,1.60
2022-08-09T17:36:40.524Z,1.70
2022-08-09T17:39:53.153Z,1.50
2022-08-09T17:42:42.664Z,1.60
2022-08-09T17:46:01.774Z,1.60
2022-08-09T17:48:54.432Z,1.40
2022-08-09T17:51:43.483Z,1.90
2022-08-09T17:54:29.696Z,1.80
2022-08-09T17:58:02.180Z,1.65
2022-08-09T18:00:18.569Z,1.67
2022-08-09T18:03:30.479Z,1.90
2022-08-09T18:06:31.351Z,1.85
2022-08-09T18:09:16.295Z,1.90
2022-08-09T18:12:17.386Z,1.75
2022-08-09T18:15:04.590Z,1.80
2022-08-09T18:18:03.691Z,1.75
2022-08-09T18:20:54.368Z,1.38
2022-08-09T18:24:11.361Z,1.85
2022-08-09T18:26:52.500Z,1.83
2022-08-09T18:30:35.698Z,2.17
2022-08-09T18:32:43.831Z,1.63
2022-08-09T18:35:58.309Z,1.85
2022-08-09T18:38:34.872Z,1.60
2022-08-09T18:41:27.635Z,2.30
2022-08-09T18:44:13.204Z,2.05
2022-08-09T18:47:15.033Z,1.98
2022-08-09T18:50:05.796Z,1.73
2022-08-09T18:52:50.814Z,1.85
2022-08-09T18:55:56.385Z,2.33
2022-08-09T18:58:38.911Z,1.80
2022-08-09T19:01:27.486Z,1.70
2022-08-09T19:04:35.159Z,1.83
2022-08-09T19:07:22.580Z,1.95
2022-08-09T19:10:17.230Z,2.42
2022-08-09T19:13:22.071Z,2.17
2022-08-09T19:16:07.088Z,2.00
2022-08-09T19:18:57.902Z,2.33
2022-08-09T19:21:52.373Z,2.20
2022-08-09T19:25:09.054Z,2.08
2022-08-09T19:27:51.041Z,2.45
2022-08-09T19:30:44.620Z,2.05
2022-08-09T19:33:25.945Z,2.35
2022-08-09T19:36:16.891Z,2.47
2022-08-09T19:38:57.670Z,2.53
2022-08-09T19:41:47.499Z,2.03
2022-08-09T19:44:29.623Z,2.00
2022-08-09T19:47:27.076Z,2.42
2022-08-09T19:50:50.162Z,1.67
2022-08-09T19:53:20.854Z,2.40
2022-08-09T19:56:07.641Z,2.35
2022-08-09T19:59:39.894Z,2.13
2022-08-09T20:02:17.111Z,3.42
2022-08-09T20:05:11.361Z,2.50
2022-08-09T20:08:05.318Z,1.90
2022-08-09T20:10:46.945Z,1.80
2022-08-09T20:13:37.536Z,2.50
2022-08-09T20:16:37.975Z,2.22
2022-08-09T20:19:47.765Z,2.03
2022-08-09T20:22:32.018Z,2.00
2022-08-09T20:25:23.089Z,2.30
2022-08-09T20:28:03.546Z,1.92
2022-08-09T20:30:54.572Z,2.10
2022-08-09T20:33:41.024Z,1.83
2022-08-09T20:36:30.054Z,2.08
2022-08-09T20:40:13.604Z,2.50
2022-08-09T20:42:23.714Z,2.15
2022-08-09T20:45:59.461Z,1.85
2022-08-09T20:48:21.108Z,2.00
2022-08-09T20:51:19.706Z,2.10
2022-08-09T20:54:00.703Z,1.85
2022-08-09T20:56:54.578Z,2.70
2022-08-09T21:00:20.700Z,2.22
2022-08-09T21:02:47.522Z,1.98
2022-08-09T21:05:52.070Z,2.05
2022-08-09T21:08:39.578Z,1.90
2022-08-09T21:14:36.986Z,3.13
2022-08-09T21:18:22.257Z,1.90
2022-08-09T21:20:31.175Z,2.35
2022-08-09T21:23:14.459Z,2.22
2022-08-09T21:26:04.495Z,2.40
2022-08-09T21:28:55.583Z,2.45
2022-08-09T21:31:49.347Z,1.90
2022-08-09T21:34:31.897Z,2.20
2022-08-09T21:37:22.828Z,2.63
2022-08-09T21:40:04.777Z,2.00
2022-08-09T21:46:01.022Z,2.35
2022-08-09T21:48:50.602Z,2.17
2022-08-09T21:51:36.011Z,2.03
2022-08-09T21:54:32.597Z,2.42
2022-08-09T21:57:25.280Z,2.05
2022-08-09T22:00:42.579Z,2.03
2022-08-09T22:03:25.483Z,1.73
2022-08-09T22:06:13.989Z,2.10
2022-08-09T22:08:55.595Z,2.20
2022-08-09T22:12:05.733Z,2.15
2022-08-09T22:14:47.716Z,2.00
2022-08-09T22:17:37.880Z,2.20
2022-08-09T22:20:27.766Z,2.50
2022-08-09T22:23:20.929Z,2.15
2022-08-09T22:26:12.386Z,2.13
2022-08-09T22:29:07.159Z,1.98
2022-08-09T22:31:56.204Z,2.13
2022-08-09T22:34:45.976Z,2.20
2022-08-09T22:37:40.248Z,2.35
2022-08-09T22:40:28.661Z,2.63
2022-08-09T22:43:16.942Z,2.17
2022-08-09T22:48:11.357Z,1.90
2022-08-09T22:49:27.743Z,2.00
2022-08-09T22:52:10.610Z,2.20
2022-08-09T22:54:58.777Z,2.35
2022-08-09T22:57:59.440Z,2.10
2022-08-09T23:00:50.985Z,2.38
2022-08-09T23:04:04.183Z,2.10
2022-08-09T23:06:59.484Z,2.33
2022-08-09T23:09:41.013Z,2.00
2022-08-09T23:12:30.793Z,2.28
2022-08-09T23:15:13.113Z,2.40
2022-08-09T23:18:00.748Z,1.98
2022-08-09T23:20:41.999Z,2.08
2022-08-09T23:23:29.767Z,2.60
2022-08-09T23:26:11.633Z,2.03
2022-08-09T23:28:59.416Z,2.38
2022-08-09T23:31:44.249Z,2.17
2022-08-09T23:34:31.935Z,2.72
2022-08-09T23:37:13.889Z,2.13
2022-08-09T23:40:08.190Z,2.13
2022-08-09T23:42:48.648Z,2.13
2022-08-09T23:45:38.876Z,2.35
2022-08-09T23:48:32.690Z,2.10
2022-08-09T23:51:21.227Z,2.63
2022-08-09T23:54:03.829Z,2.15
2022-08-09T23:56:56.116Z,2.10
2022-08-09T23:59:57.235Z,2.45
